Time;durP1;ratioP1;P1;durP2;ratioP2;P2;SDS_P1;SDS_P2;PMS_P1;PMS_P2;Temp;Humidity;BMP_temperature;BMP_pressure;BME280_temperature;BME280_humidity;BME280_pressure;Samples;Min_cycle;Max_cycle;Signal;HPM_P1;HPM_P2
2022/09/22 00:01:01;;;;;;;15.83;13.67;;;;;;;8.90;83.05;102302.84;5263374;28;20044;-69
2022/09/22 00:03:35;;;;;;;17.20;13.02;;;;;;;8.83;83.38;102292.28;5263912;28;20028;-70
2022/09/22 00:06:10;;;;;;;16.83;13.73;;;;;;;8.86;83.46;102298.41;5263755;28;20029;-68
2022/09/22 00:08:47;;;;;;;17.67;13.25;;;;;;;8.90;83.47;102289.84;5263793;28;20052;-68
2022/09/22 00:11:27;;;;;;;18.87;13.83;;;;;;;8.80;83.43;102297.41;5224947;28;1096355;-68
2022/09/22 00:14:06;;;;;;;14.85;13.38;;;;;;;8.78;83.93;102294.78;5263982;28;20064;-69
2022/09/22 00:16:44;;;;;;;15.75;14.18;;;;;;;8.77;83.93;102290.44;5264812;28;20037;-68
2022/09/22 00:19:19;;;;;;;18.08;13.68;;;;;;;8.71;83.89;102292.91;5280086;28;20044;-68
2022/09/22 00:21:50;;;;;;;15.60;13.73;;;;;;;8.68;84.12;102293.75;5263503;28;20082;-69
2022/09/22 00:24:22;;;;;;;17.50;14.33;;;;;;;8.68;83.98;102282.47;5264549;28;20033;-68
2022/09/22 00:26:56;;;;;;;23.25;14.60;;;;;;;8.63;84.38;102295.38;5264249;28;20483;-68
2022/09/22 00:29:29;;;;;;;17.92;14.32;;;;;;;8.52;84.09;102291.69;5264429;28;20613;-69
2022/09/22 00:32:00;;;;;;;;;;;;;;;8.73;82.73;102286.03;5264256;28;20476;-70
2022/09/22 00:34:31;;;;;;;17.27;14.50;;;;;;;8.61;83.88;102294.44;5264154;28;19952;-70
2022/09/22 00:37:03;;;;;;;18.87;16.13;;;;;;;8.35;83.88;102284.38;5263202;28;20044;-69
2022/09/22 00:39:34;;;;;;;15.80;13.97;;;;;;;8.34;84.07;102284.34;5262616;28;20480;-69
2022/09/22 00:42:06;;;;;;;15.10;13.60;;;;;;;8.36;83.95;102288.75;5263778;28;20032;-68
2022/09/22 00:44:41;;;;;;;15.93;14.20;;;;;;;8.15;84.23;102289.16;5262538;28;20064;-69
2022/09/22 00:47:25;;;;;;;18.20;14.35;;;;;;;8.03;85.18;102286.28;5262433;28;20095;-69
2022/09/22 00:50:08;;;;;;;19.13;15.15;;;;;;;8.16;84.95;102292.63;5260733;28;20029;-69
2022/09/22 00:52:55;;;;;;;15.75;14.10;;;;;;;8.07;85.05;102280.34;5262625;28;20033;-69
2022/09/22 00:55:34;;;;;;;20.17;15.95;;;;;;;7.99;84.71;102290.56;5263153;28;20029;-69
2022/09/22 00:58:11;;;;;;;18.08;16.00;;;;;;;8.06;85.30;102285.50;5264199;28;20109;-70
2022/09/22 01:00:42;;;;;;;19.50;16.02;;;;;;;7.92;85.69;102278.28;5263415;28;20122;-69
2022/09/22 01:03:20;;;;;;;16.77;15.10;;;;;;;8.01;85.54;102275.88;5263812;28;20567;-69
2022/09/22 01:05:54;;;;;;;17.70;15.93;;;;;;;7.84;85.69;102275.53;5263574;28;20104;-69
2022/09/22 01:08:28;;;;;;;17.50;15.48;;;;;;;7.96;85.65;102269.72;5263170;28;20052;-69
2022/09/22 01:11:00;;;;;;;17.08;15.27;;;;;;;7.97;85.35;102276.66;5263124;28;20467;-69
2022/09/22 01:13:49;;;;;;;17.53;14.80;;;;;;;7.73;86.03;102270.91;5263848;28;20119;-70
2022/09/22 01:16:32;;;;;;;17.77;15.23;;;;;;;7.88;85.97;102263.47;5263544;28;20029;-69
2022/09/22 01:19:34;;;;;;;17.25;15.60;;;;;;;7.87;86.34;102256.53;5264110;28;20043;-69
2022/09/22 01:22:18;;;;;;;18.15;16.25;;;;;;;7.82;86.32;102250.34;5263041;28;20043;-68
2022/09/22 01:25:04;;;;;;;18.63;15.95;;;;;;;7.75;86.49;102257.13;5264197;28;20140;-70
2022/09/22 01:27:35;;;;;;;17.63;15.82;;;;;;;7.77;86.44;102254.56;5263424;28;20032;-69
2022/09/22 01:30:15;;;;;;;17.53;15.73;;;;;;;7.73;86.56;102248.44;5263151;28;20059;-69
2022/09/22 01:33:13;;;;;;;18.20;16.13;;;;;;;7.77;86.35;102255.44;5262639;28;20056;-70
2022/09/22 01:36:10;;;;;;;18.75;15.65;;;;;;;7.73;86.24;102251.03;5268600;28;20029;-82
2022/09/22 01:39:03;;;;;;;17.90;16.10;;;;;;;7.69;86.29;102254.41;5288428;28;20112;-81
2022/09/22 01:41:50;;;;;;;18.40;16.70;;;;;;;7.69;85.96;102249.19;5271718;28;20056;-81
2022/09/22 01:44:25;;;;;;;19.40;16.23;;;;;;;7.54;85.94;102241.94;5263483;28;20397;-79
2022/09/22 01:47:19;;;;;;;19.08;17.17;;;;;;;7.62;86.46;102244.72;5262933;28;20033;-79
2022/09/22 01:50:06;;;;;;;20.80;17.33;;;;;;;7.55;86.56;102243.72;5250826;28;20037;-79
2022/09/22 01:52:40;;;;;;;17.60;15.75;;;;;;;7.48;86.66;102240.06;5263441;28;20060;-79
2022/09/22 01:55:40;;;;;;;20.35;16.90;;;;;;;7.48;86.67;102232.28;5262960;28;20108;-79
2022/09/22 01:58:16;;;;;;;19.27;16.00;;;;;;;7.35;86.79;102229.41;5259747;28;20068;-79
2022/09/22 02:00:54;;;;;;;18.88;17.08;;;;;;;7.40;86.97;102225.19;5263372;28;20368;-82
2022/09/22 02:03:42;;;;;;;21.33;17.15;;;;;;;7.34;87.10;102225.03;5262792;28;20061;-81
2022/09/22 02:06:19;;;;;;;17.80;15.93;;;;;;;7.21;87.37;102224.75;5262869;28;20036;-81
2022/09/22 02:08:59;;;;;;;19.55;16.45;;;;;;;7.28;87.70;102225.78;5263040;28;20052;-81
2022/09/22 02:11:30;;;;;;;19.83;17.80;;;;;;;7.19;87.68;102221.22;5262436;28;20059;-80
2022/09/22 02:14:03;;;;;;;18.90;16.97;;;;;;;7.12;88.09;102217.63;5263468;28;20021;-80
2022/09/22 02:16:35;;;;;;;20.50;17.58;;;;;;;7.06;88.26;102214.00;5262755;28;20064;-80
2022/09/22 02:19:18;;;;;;;19.00;17.25;;;;;;;7.14;88.75;102217.66;5261714;28;20029;-78
2022/09/22 02:21:49;;;;;;;;;;;;;;;7.24;87.17;102223.94;5263329;28;20029;-78
2022/09/22 02:24:41;;;;;;;19.40;17.35;;;;;;;7.18;88.03;102216.91;5263238;28;19923;-78
2022/09/22 02:27:24;;;;;;;19.52;17.73;;;;;;;7.20;87.83;102209.16;5263461;28;20032;-79
2022/09/22 02:29:58;;;;;;;;;;;;;;;7.26;86.72;102204.09;5263253;28;20032;-79
2022/09/22 02:32:33;;;;;;;19.38;17.42;;;;;;;7.08;87.69;102205.44;5265939;28;19913;-78
2022/09/22 02:35:06;;;;;;;20.90;17.20;;;;;;;7.06;87.97;102201.91;5283216;28;20089;-79
2022/09/22 02:38:18;;;;;;;18.80;16.63;;;;;;;7.09;88.18;102203.72;5271982;28;20033;-79
2022/09/22 02:41:02;;;;;;;18.48;16.58;;;;;;;6.92;88.27;102204.19;5262599;28;20551;-79
2022/09/22 02:43:47;;;;;;;21.55;18.27;;;;;;;6.93;88.09;102203.31;5263155;28;20099;-78
2022/09/22 02:46:24;;;;;;;19.38;17.48;;;;;;;6.91;88.61;102192.03;5262670;28;20028;-79
2022/09/22 02:49:01;;;;;;;23.00;17.27;;;;;;;6.88;88.70;102196.28;5262487;28;20029;-80
2022/09/22 02:51:33;;;;;;;18.27;16.48;;;;;;;6.87;88.54;102195.38;5262369;28;20039;-81
2022/09/22 02:54:05;;;;;;;19.60;17.70;;;;;;;6.90;88.96;102189.41;5262587;28;20033;-82
2022/09/22 02:56:36;;;;;;;20.60;18.27;;;;;;;6.79;88.95;102190.84;5262656;28;20141;-81
2022/09/22 02:59:11;;;;;;;20.97;17.93;;;;;;;6.75;89.07;102188.19;5262641;28;20032;-82
2022/09/22 03:01:42;;;;;;;20.27;17.90;;;;;;;6.78;89.12;102192.59;5262291;28;20131;-81
2022/09/22 03:04:14;;;;;;;20.70;18.63;;;;;;;6.67;89.35;102181.06;5262312;28;20120;-80
2022/09/22 03:06:45;;;;;;;19.57;17.67;;;;;;;6.63;89.31;102176.63;5262546;28;20033;-80
2022/09/22 03:09:16;;;;;;;20.43;18.43;;;;;;;6.59;89.45;102180.84;5262409;28;20437;-80
2022/09/22 03:11:48;;;;;;;20.60;18.47;;;;;;;6.52;89.62;102174.66;5261960;28;20480;-80
2022/09/22 03:14:19;;;;;;;21.17;19.20;;;;;;;6.55;89.71;102176.41;5263249;28;20033;-80
2022/09/22 03:16:50;;;;;;;23.93;20.77;;;;;;;6.46;89.80;102169.28;5266050;28;20057;-79
2022/09/22 03:19:22;;;;;;;24.23;20.30;;;;;;;6.53;90.10;102178.09;5266266;28;20024;-79
2022/09/22 03:21:53;;;;;;;22.53;20.10;;;;;;;6.48;90.14;102177.09;5265897;28;20554;-79
2022/09/22 03:24:25;;;;;;;22.20;19.87;;;;;;;6.53;90.33;102175.50;5264813;28;20033;-79
2022/09/22 03:26:56;;;;;;;21.63;19.33;;;;;;;6.38;89.82;102176.00;5267801;28;20094;-79
2022/09/22 03:29:27;;;;;;;21.60;19.47;;;;;;;6.42;90.47;102169.16;5279922;28;20088;-79
2022/09/22 03:31:59;;;;;;;21.87;19.63;;;;;;;6.42;90.58;102177.81;5288867;28;20021;-79
2022/09/22 03:34:30;;;;;;;22.30;20.00;;;;;;;6.31;90.25;102166.28;5267028;28;20052;-79
2022/09/22 03:37:03;;;;;;;21.83;19.73;;;;;;;6.32;90.41;102160.28;5266036;28;20036;-79
2022/09/22 03:39:34;;;;;;;21.80;19.70;;;;;;;6.25;90.70;102160.94;5265813;28;20029;-79
2022/09/22 03:42:06;;;;;;;22.93;20.60;;;;;;;6.31;90.80;102162.00;5265523;28;20033;-80
2022/09/22 03:44:37;;;;;;;20.53;18.53;;;;;;;6.32;90.61;102162.88;5265494;28;20032;-81
2022/09/22 03:47:08;;;;;;;22.30;19.33;;;;;;;6.31;90.64;102166.28;5265584;28;20025;-80
2022/09/22 03:49:40;;;;;;;21.27;19.27;;;;;;;6.20;90.96;102160.84;5266128;28;20029;-81
2022/09/22 03:52:11;;;;;;;22.27;20.17;;;;;;;6.19;90.92;102162.53;5265335;28;20029;-81
2022/09/22 03:54:43;;;;;;;23.00;20.30;;;;;;;6.17;91.38;102158.16;5265078;28;20075;-79
2022/09/22 03:57:14;;;;;;;24.13;21.43;;;;;;;6.08;91.06;102169.13;5265120;28;20044;-79
2022/09/22 03:59:45;;;;;;;22.23;19.93;;;;;;;6.14;91.42;102164.13;5264937;28;20108;-79
2022/09/22 04:02:17;;;;;;;21.00;18.80;;;;;;;6.17;91.60;102169.38;5265281;28;20068;-81
2022/09/22 04:04:48;;;;;;;23.30;21.00;;;;;;;6.11;91.38;102156.25;5265354;28;20108;-82
2022/09/22 04:07:19;;;;;;;21.03;18.97;;;;;;;5.96;91.51;102159.31;5265215;28;20032;-79
2022/09/22 04:09:51;;;;;;;23.43;21.00;;;;;;;6.00;91.88;102160.25;5265311;28;20021;-80
2022/09/22 04:12:22;;;;;;;23.27;20.77;;;;;;;6.00;92.16;102155.94;5265527;28;20064;-80
2022/09/22 04:14:53;;;;;;;22.90;20.50;;;;;;;5.95;92.19;102154.06;5265437;28;20044;-80
2022/09/22 04:17:25;;;;;;;22.77;20.23;;;;;;;5.97;92.45;102144.66;5263849;28;20036;-80
2022/09/22 04:19:56;;;;;;;24.27;21.93;;;;;;;5.97;92.33;102149.81;5265532;28;20044;-80
2022/09/22 04:22:28;;;;;;;23.80;20.67;;;;;;;5.99;92.58;102145.59;5265076;28;20112;-80
2022/09/22 04:24:59;;;;;;;21.70;19.83;;;;;;;5.97;92.71;102140.38;5264524;28;20372;-79
2022/09/22 04:27:30;;;;;;;22.20;19.90;;;;;;;5.96;92.39;102142.88;5263897;28;20025;-80
2022/09/22 04:30:04;;;;;;;24.27;21.67;;;;;;;5.81;92.52;102140.72;5265024;28;20036;-79
2022/09/22 04:32:36;;;;;;;21.52;19.42;;;;;;;5.80;92.91;102142.44;5264476;28;20140;-79
2022/09/22 04:35:08;;;;;;;21.90;19.60;;;;;;;5.85;93.00;102147.75;5265030;28;20108;-79
2022/09/22 04:37:41;;;;;;;22.20;20.02;;;;;;;5.76;93.26;102142.28;5264979;28;20064;-79
2022/09/22 04:40:12;;;;;;;;;;;;;;;5.88;92.19;102147.84;5264871;28;20458;-79
2022/09/22 04:42:45;;;;;;;21.83;19.73;;;;;;;5.83;92.89;102141.66;5264264;28;19962;-80
2022/09/22 04:45:17;;;;;;;22.67;20.35;;;;;;;5.72;93.29;102148.22;5264055;28;20074;-80
2022/09/22 04:47:50;;;;;;;22.80;20.53;;;;;;;5.69;93.54;102154.19;5264255;28;20403;-79
2022/09/22 04:50:22;;;;;;;25.10;21.63;;;;;;;5.73;93.62;102145.69;5263945;28;20370;-79
2022/09/22 04:52:55;;;;;;;23.00;20.77;;;;;;;5.71;93.87;102147.34;5264170;28;20120;-79
2022/09/22 04:55:27;;;;;;;;;;;;;;;5.78;92.87;102154.47;5264299;28;20033;-79
2022/09/22 04:57:58;;;;;;;21.50;19.33;;;;;;;5.75;93.36;102143.16;5264465;28;19913;-79
2022/09/22 05:00:30;;;;;;;22.47;19.10;;;;;;;5.75;93.60;102144.00;5263646;28;20449;-80
2022/09/22 05:03:07;;;;;;;21.67;19.47;;;;;;;5.68;93.40;102149.81;5263847;28;20032;-75
2022/09/22 05:05:38;;;;;;;26.35;20.27;;;;;;;5.72;93.79;102151.69;5263559;28;20097;-75
2022/09/22 05:08:10;;;;;;;22.23;20.13;;;;;;;5.59;93.83;102150.44;5264131;28;20044;-75
2022/09/22 05:10:41;;;;;;;24.33;21.27;;;;;;;5.68;94.00;102139.47;5263715;28;20358;-75
2022/09/22 05:13:12;;;;;;;23.60;20.30;;;;;;;5.63;94.16;102144.50;5263572;28;20144;-74
2022/09/22 05:15:44;;;;;;;23.63;19.33;;;;;;;5.68;94.27;102148.97;5263499;28;20192;-74
2022/09/22 05:18:15;;;;;;;23.10;20.13;;;;;;;5.57;93.95;102143.47;5263318;28;20033;-74
2022/09/22 05:20:46;;;;;;;21.77;19.70;;;;;;;5.59;94.00;102147.84;5263721;28;20071;-75
2022/09/22 05:23:18;;;;;;;24.53;19.70;;;;;;;5.42;93.86;102157.69;5262318;28;20037;-74
2022/09/22 05:25:49;;;;;;;21.80;19.60;;;;;;;5.44;94.22;102147.38;5263227;28;20388;-75
2022/09/22 05:28:21;;;;;;;22.97;20.40;;;;;;;5.50;94.57;102160.50;5262924;28;20039;-75
2022/09/22 05:30:53;;;;;;;23.55;21.05;;;;;;;5.57;94.75;102164.16;5262840;28;20040;-74
2022/09/22 05:33:24;;;;;;;23.83;19.20;;;;;;;5.53;94.77;102159.75;5262587;28;20033;-75
2022/09/22 05:35:55;;;;;;;23.97;19.53;;;;;;;5.57;94.88;102158.97;5262718;28;20021;-74
2022/09/22 05:38:27;;;;;;;22.00;19.17;;;;;;;5.64;95.18;102155.75;5262487;28;20033;-74
2022/09/22 05:40:59;;;;;;;24.83;19.43;;;;;;;5.63;95.26;102166.94;5262480;28;20082;-74
2022/09/22 05:43:30;;;;;;;21.00;18.87;;;;;;;5.70;94.96;102163.72;5263171;28;20742;-75
2022/09/22 05:46:01;;;;;;;23.23;18.83;;;;;;;5.71;94.96;102156.81;5262504;28;20044;-75
2022/09/22 05:48:33;;;;;;;22.73;20.53;;;;;;;5.71;95.23;102160.28;5263024;28;20079;-76
2022/09/22 05:51:04;;;;;;;27.80;19.47;;;;;;;5.58;94.67;102164.19;5262740;28;20119;-73
2022/09/22 05:53:35;;;;;;;21.17;18.83;;;;;;;5.66;95.05;102156.66;5262990;28;20025;-77
2022/09/22 05:56:07;;;;;;;20.93;18.80;;;;;;;5.59;95.12;102165.97;5262587;28;20460;-77
2022/09/22 05:58:38;;;;;;;23.07;20.00;;;;;;;5.70;95.20;102166.28;5262296;28;20038;-78
2022/09/22 06:01:09;;;;;;;23.67;19.30;;;;;;;5.69;95.28;102161.94;5262592;28;20179;-76
2022/09/22 06:03:41;;;;;;;21.13;18.83;;;;;;;5.61;95.44;102172.06;5262163;28;20029;-77
2022/09/22 06:06:13;;;;;;;23.30;18.60;;;;;;;5.79;95.54;102163.94;5262504;28;20033;-77
2022/09/22 06:08:45;;;;;;;21.25;19.17;;;;;;;5.74;95.57;102164.66;5262660;28;20356;-78
2022/09/22 06:11:16;;;;;;;21.83;19.13;;;;;;;5.84;96.07;102172.75;5262413;28;20024;-78
2022/09/22 06:13:49;;;;;;;22.97;20.20;;;;;;;5.89;96.31;102165.09;5263274;28;20048;-78
2022/09/22 06:16:21;;;;;;;20.70;18.38;;;;;;;5.91;96.54;102166.03;5265175;28;20028;-77
2022/09/22 06:18:52;;;;;;;20.77;18.53;;;;;;;5.98;96.77;102169.72;5282072;28;20051;-78
2022/09/22 06:21:24;;;;;;;20.70;18.50;;;;;;;5.99;96.86;102171.47;5271528;28;20489;-77
2022/09/22 06:23:56;;;;;;;23.50;20.85;;;;;;;6.01;97.17;102162.03;5262348;28;20029;-78
2022/09/22 06:26:27;;;;;;;22.07;19.10;;;;;;;6.12;97.68;102163.22;5262457;28;20032;-77
2022/09/22 06:28:59;;;;;;;20.87;18.80;;;;;;;6.27;97.77;102161.88;5262432;28;20387;-76
2022/09/22 06:31:30;;;;;;;24.50;20.83;;;;;;;6.33;98.01;102159.44;5262338;28;20031;-76
2022/09/22 06:34:01;;;;;;;24.03;20.00;;;;;;;6.42;98.29;102162.25;5262205;28;20392;-76
2022/09/22 06:36:33;;;;;;;22.93;19.83;;;;;;;6.56;98.57;102165.22;5262557;28;20158;-77
2022/09/22 06:39:04;;;;;;;24.73;21.53;;;;;;;6.60;99.01;102166.19;5262621;28;20029;-77
2022/09/22 06:41:36;;;;;;;27.03;22.10;;;;;;;6.71;99.71;102162.16;5262642;28;20036;-77
2022/09/22 06:44:11;;;;;;;26.60;22.83;;;;;;;6.82;100.00;102165.88;5262866;28;20037;-77
2022/09/22 06:46:42;;;;;;;29.63;24.23;;;;;;;6.90;100.00;102163.47;5262545;28;20056;-77
2022/09/22 06:49:14;;;;;;;25.93;23.13;;;;;;;7.01;100.00;102169.81;5263450;28;20071;-78
2022/09/22 06:51:48;;;;;;;22.43;20.03;;;;;;;7.12;100.00;102170.94;5265989;28;20025;-77
2022/09/22 06:54:19;;;;;;;22.10;19.85;;;;;;;7.23;99.69;102172.91;5266663;28;20104;-77
2022/09/22 06:56:51;;;;;;;26.47;22.13;;;;;;;7.33;99.72;102161.03;5266945;28;20033;-77
2022/09/22 06:59:22;;;;;;;25.37;20.60;;;;;;;7.51;99.64;102171.81;5266446;28;20111;-78
2022/09/22 07:01:53;;;;;;;22.70;20.43;;;;;;;7.60;99.70;102165.94;5266781;28;20033;-77
2022/09/22 07:04:25;;;;;;;27.33;20.23;;;;;;;7.71;99.59;102166.19;5266202;28;20025;-78
2022/09/22 07:06:56;;;;;;;25.60;20.63;;;;;;;7.80;99.38;102161.19;5266139;28;20072;-78
2022/09/22 07:09:27;;;;;;;24.00;20.97;;;;;;;7.92;99.55;102153.66;5266511;28;20083;-78
2022/09/22 07:11:59;;;;;;;24.23;20.07;;;;;;;8.04;99.02;102161.69;5265751;28;20079;-76
2022/09/22 07:14:31;;;;;;;26.07;20.57;;;;;;;8.16;98.67;102161.06;5278963;28;20039;-77
2022/09/22 07:17:02;;;;;;;27.65;19.90;;;;;;;8.30;98.61;102153.50;5278546;28;20025;-78
2022/09/22 07:19:35;;;;;;;22.17;19.73;;;;;;;8.43;97.59;102162.44;5266702;28;20033;-78
2022/09/22 07:22:07;;;;;;;23.38;20.02;;;;;;;8.55;97.37;102156.59;5265653;28;20029;-78
2022/09/22 07:24:38;;;;;;;24.35;19.98;;;;;;;8.69;97.16;102156.81;5265540;28;20483;-77
2022/09/22 07:27:19;;;;;;;25.10;19.40;;;;;;;8.84;97.28;102143.19;5264882;28;20036;-76
2022/09/22 07:29:53;;;;;;;20.83;18.35;;;;;;;8.94;96.50;102148.56;5265775;28;20036;-78
2022/09/22 07:32:25;;;;;;;20.55;18.25;;;;;;;9.08;96.10;102146.22;5265016;28;20033;-77
2022/09/22 07:34:57;;;;;;;21.08;18.48;;;;;;;9.28;95.89;102148.22;5265092;28;20086;-78
2022/09/22 07:37:32;;;;;;;19.30;17.10;;;;;;;9.37;95.19;102148.38;5265034;28;20508;-78
2022/09/22 07:40:03;;;;;;;26.60;16.88;;;;;;;9.54;94.08;102143.38;5265013;28;20516;-79
2022/09/22 07:42:35;;;;;;;19.43;15.97;;;;;;;9.70;94.38;102146.19;5265048;28;20104;-79
2022/09/22 07:45:13;;;;;;;18.57;13.43;;;;;;;9.85;91.01;102152.47;5265098;28;20166;-79
2022/09/22 07:50:35;;;;;;;20.00;14.50;;;;;;;10.20;89.64;102154.56;5264539;28;20123;-80
2022/09/22 07:53:06;;;;;;;19.97;13.63;;;;;;;10.31;89.86;102152.09;5264658;28;20112;-80
2022/09/22 07:55:37;;;;;;;19.30;12.67;;;;;;;10.40;88.81;102149.63;5264815;28;20029;-80
2022/09/22 07:58:09;;;;;;;19.17;13.20;;;;;;;10.58;89.96;102154.13;5264912;28;20024;-80
2022/09/22 08:00:40;;;;;;;16.30;11.33;;;;;;;10.69;89.22;102143.81;5264249;28;20041;-80
2022/09/22 08:03:11;;;;;;;18.57;10.60;;;;;;;10.87;85.21;102148.28;5265160;28;20060;-81
2022/09/22 08:05:45;;;;;;;18.07;10.77;;;;;;;11.04;86.26;102144.91;5264993;28;20037;-82
2022/09/22 08:08:17;;;;;;;21.02;11.30;;;;;;;11.17;86.87;102148.50;5264915;28;20025;-81
2022/09/22 08:10:48;;;;;;;18.93;10.77;;;;;;;11.21;85.04;102147.66;5264690;28;20040;-80
2022/09/22 08:13:20;;;;;;;17.30;11.17;;;;;;;11.33;82.55;102147.72;5264994;28;20045;-82
2022/09/22 08:15:55;;;;;;;15.70;10.45;;;;;;;11.48;84.46;102146.94;5264614;28;20131;-80
2022/09/22 08:18:26;;;;;;;13.10;11.13;;;;;;;11.71;86.14;102141.81;5264340;28;20409;-81
2022/09/22 08:21:00;;;;;;;14.83;9.90;;;;;;;11.77;82.88;102143.56;5264409;28;20058;-82
2022/09/22 08:23:32;;;;;;;14.38;9.20;;;;;;;11.93;82.01;102139.31;5263966;28;20406;-80
2022/09/22 08:26:06;;;;;;;15.98;9.95;;;;;;;11.98;81.53;102133.25;5264270;28;20025;-76
2022/09/22 08:28:38;;;;;;;13.38;9.35;;;;;;;12.06;80.85;102132.38;5264572;28;20052;-82
2022/09/22 08:31:19;;;;;;;10.93;8.40;;;;;;;12.19;80.54;102129.81;5264064;28;20029;-82
2022/09/22 08:33:52;;;;;;;15.45;8.90;;;;;;;12.33;79.18;102131.56;5264935;28;20024;-82
2022/09/22 08:36:28;;;;;;;12.10;8.88;;;;;;;12.40;78.47;102130.72;5264441;28;20029;-75
2022/09/22 08:39:01;;;;;;;15.18;8.68;;;;;;;12.58;79.06;102129.88;5264192;28;20036;-76
2022/09/22 08:41:37;;;;;;;11.55;8.30;;;;;;;12.66;78.93;102125.50;5264039;28;20041;-78
2022/09/22 08:44:09;;;;;;;11.45;7.88;;;;;;;12.72;77.63;102129.88;5264484;28;20043;-78
2022/09/22 08:46:46;;;;;;;8.90;7.45;;;;;;;12.84;75.16;102131.59;5264098;28;20436;-78
2022/09/22 08:52:44;;;;;;;9.57;7.05;;;;;;;13.34;74.11;102137.66;5263593;28;20029;-81
2022/09/22 08:55:22;;;;;;;11.45;6.63;;;;;;;13.57;72.34;102135.84;5263921;28;20029;-80
2022/09/22 08:58:12;;;;;;;9.57;6.47;;;;;;;13.94;73.14;102137.44;5263342;28;20029;-81
2022/09/22 09:00:55;;;;;;;11.57;6.00;;;;;;;14.34;68.33;102138.06;5264142;28;20036;-83
2022/09/22 09:03:32;;;;;;;10.40;5.80;;;;;;;15.38;67.39;102137.19;5265155;28;20036;-82
2022/09/22 09:06:11;;;;;;;12.30;5.90;;;;;;;15.99;64.00;102131.19;5278016;28;20021;-82
2022/09/22 09:09:02;;;;;;;7.40;5.30;;;;;;;16.75;59.39;102146.69;5286222;28;20044;-83
2022/09/22 09:11:56;;;;;;;12.55;5.50;;;;;;;17.22;61.18;102146.75;5265272;28;20028;-82
2022/09/22 09:15:06;;;;;;;8.88;4.35;;;;;;;17.99;58.48;102139.09;5263638;28;20048;-82
2022/09/22 09:17:41;;;;;;;7.60;4.40;;;;;;;18.24;52.53;102152.59;5179646;28;20035;-83
2022/09/22 09:20:31;;;;;;;9.00;4.75;;;;;;;18.60;56.01;102142.06;5253952;28;20063;-83
2022/09/22 09:23:09;;;;;;;5.90;4.18;;;;;;;18.93;50.21;102148.28;5263864;28;20142;-84
2022/09/22 09:25:41;;;;;;;7.55;3.72;;;;;;;19.55;46.71;102145.75;5263950;28;20032;-82
2022/09/22 09:28:32;;;;;;;9.88;4.05;;;;;;;19.67;49.87;102140.97;5263622;28;20531;-84
2022/09/22 09:31:26;;;;;;;6.55;2.92;;;;;;;20.22;49.73;102140.19;5264228;28;20025;-84
2022/09/22 09:34:04;;;;;;;7.70;2.88;;;;;;;20.39;45.01;102139.66;5263623;28;20025;-84
2022/09/22 09:36:40;;;;;;;4.50;2.53;;;;;;;20.39;42.00;102137.88;5264226;28;20076;-84
2022/09/22 09:39:30;;;;;;;5.15;3.30;;;;;;;20.56;46.81;102139.97;5263421;28;20037;-84
2022/09/22 09:42:24;;;;;;;6.85;3.40;;;;;;;21.43;45.21;102135.22;5263697;28;20029;-84
2022/09/22 09:45:01;;;;;;;5.72;2.50;;;;;;;21.55;41.80;102135.72;5264311;28;20483;-84
2022/09/22 09:48:14;;;;;;;6.28;3.67;;;;;;;22.53;45.49;102142.47;5263495;28;20033;-84
2022/09/22 09:50:45;;;;;;;3.60;2.85;;;;;;;22.51;40.39;102138.16;5179371;28;20048;-83
2022/09/22 09:53:43;;;;;;;3.73;2.50;;;;;;;23.10;44.34;102144.53;5179704;28;20046;-83
2022/09/22 09:56:20;;;;;;;7.43;2.10;;;;;;;22.69;38.64;102142.69;5242486;28;20045;-82
2022/09/22 10:01:49;;;;;;;5.50;2.33;;;;;;;23.35;37.43;102127.50;5267354;28;20123;-84
2022/09/22 10:04:34;;;;;;;5.03;2.33;;;;;;;23.76;34.43;102122.03;5286652;28;20029;-80
2022/09/22 10:07:11;;;;;;;6.82;2.38;;;;;;;23.56;38.75;102122.97;5270487;28;20459;-84
2022/09/22 10:09:44;;;;;;;3.55;2.03;;;;;;;23.35;38.70;102111.53;5264235;28;20404;-81
2022/09/22 10:12:27;;;;;;;4.50;2.25;;;;;;;23.93;38.44;102114.13;5261800;28;20504;-82
2022/09/22 10:15:00;;;;;;;6.70;2.60;;;;;;;23.50;32.87;102121.44;5262733;28;20125;-83
2022/09/22 10:17:41;;;;;;;6.45;2.90;;;;;;;23.67;38.31;102123.34;5262589;28;20028;-83
2022/09/22 10:20:25;;;;;;;5.57;3.10;;;;;;;23.49;34.33;102119.75;5263323;28;20082;-84
2022/09/22 10:23:22;;;;;;;2.75;1.95;;;;;;;23.96;37.33;102114.00;5263746;28;20025;-83
2022/09/22 10:26:31;;;;;;;7.25;2.90;;;;;;;23.92;34.54;102108.88;5267111;28;20025;-83
2022/09/22 10:29:17;;;;;;;4.68;3.00;;;;;;;23.87;33.35;102110.91;5267150;28;20483;-82
2022/09/22 10:32:16;;;;;;;3.72;2.25;;;;;;;24.66;37.20;102103.44;5267123;28;20029;-82
2022/09/22 10:34:49;;;;;;;4.28;2.28;;;;;;;24.90;34.47;102109.31;5267497;28;20104;-82
2022/09/22 10:37:26;;;;;;;7.35;3.00;;;;;;;24.36;31.79;102105.84;5267338;28;20036;-83
2022/09/22 10:40:00;;;;;;;4.53;2.60;;;;;;;24.21;31.94;102095.03;5266327;28;20119;-82
2022/09/22 10:42:42;;;;;;;8.02;2.40;;;;;;;24.11;32.12;102084.88;5267335;28;20480;-82
2022/09/22 10:45:17;;;;;;;3.58;2.33;;;;;;;24.54;35.39;102088.06;5267581;28;20037;-81
2022/09/22 10:48:11;;;;;;;4.57;2.38;;;;;;;25.28;32.87;102089.56;5267133;28;20033;-81
2022/09/22 10:51:05;;;;;;;2.22;1.75;;;;;;;25.77;30.62;102078.81;5267546;28;20070;-82
2022/09/22 10:53:58;;;;;;;4.25;1.30;;;;;;;25.92;30.61;102089.59;5267187;28;20413;-83
2022/09/22 10:56:37;;;;;;;3.60;1.40;;;;;;;26.43;34.10;102084.84;5267281;28;20056;-82
2022/09/22 10:59:31;;;;;;;3.35;1.88;;;;;;;26.57;29.94;102089.41;5280612;28;20047;-83
2022/09/22 11:02:17;;;;;;;4.57;2.58;;;;;;;27.37;30.91;102084.53;5284140;28;20491;-84
2022/09/22 11:05:18;;;;;;;3.95;2.13;;;;;;;28.06;29.17;102078.34;5267036;28;20025;-83
2022/09/22 11:14:54;;;;;;;6.25;2.30;;;;;;;28.26;30.03;102064.47;5267642;28;20049;-82
2022/09/22 11:17:50;;;;;;;2.58;1.70;;;;;;;28.02;29.98;102075.88;5203026;28;20045;-82
2022/09/22 11:20:35;;;;;;;4.50;2.03;;;;;;;28.05;26.51;102061.41;5265883;28;20056;-83
2022/09/22 11:23:27;;;;;;;1.98;1.52;;;;;;;27.98;25.96;102058.28;5266089;28;20056;-82
2022/09/22 11:26:13;;;;;;;;;;;;;;;29.83;28.23;102063.28;5266456;28;20159;-81
2022/09/22 11:29:05;;;;;;;3.95;2.20;;;;;;;27.02;27.08;102063.47;5265759;28;19916;-83
2022/09/22 11:31:56;;;;;;;5.80;2.03;;;;;;;27.57;30.18;102060.97;5267255;28;20095;-81
2022/09/22 11:35:10;;;;;;;6.13;2.20;;;;;;;29.81;28.13;102055.34;5266022;28;20039;-84
2022/09/22 11:38:08;;;;;;;5.78;2.08;;;;;;;30.04;27.30;102054.59;5266556;28;20104;-84
2022/09/22 11:40:54;;;;;;;4.22;2.00;;;;;;;28.87;28.13;102051.34;5266583;28;20480;-83
2022/09/22 11:43:44;;;;;;;3.38;1.90;;;;;;;29.51;28.14;102047.69;5266469;28;20471;-86
2022/09/22 11:46:48;;;;;;;3.55;1.85;;;;;;;27.35;26.41;102040.91;5266536;28;20037;-83
2022/09/22 11:49:38;;;;;;;3.85;1.85;;;;;;;26.26;30.28;102036.88;5266198;28;20025;-78
2022/09/22 11:52:42;;;;;;;4.45;2.08;;;;;;;27.14;31.58;102032.41;5265761;28;20090;-82
2022/09/22 11:55:13;;;;;;;3.72;1.52;;;;;;;28.34;25.42;102027.25;5265657;28;20073;-83
2022/09/22 11:57:50;;;;;;;6.13;1.87;;;;;;;29.34;26.90;102023.91;5265733;28;20126;-83
2022/09/22 12:00:22;;;;;;;3.20;1.80;;;;;;;29.88;22.54;102017.25;5266413;28;20314;-84
2022/09/22 12:03:03;;;;;;;3.90;1.83;;;;;;;29.50;22.83;102013.75;5266142;28;20037;-84
2022/09/22 12:05:49;;;;;;;4.10;2.13;;;;;;;27.17;25.19;102016.16;5265563;28;20033;-82
2022/09/22 12:08:23;;;;;;;6.13;1.83;;;;;;;26.68;27.12;102011.22;5265979;28;20033;-81
2022/09/22 12:10:55;;;;;;;4.43;1.80;;;;;;;25.00;28.08;102000.31;5266459;28;20158;-81
2022/09/22 12:13:29;;;;;;;4.68;1.75;;;;;;;25.32;28.80;102000.38;5264433;28;20057;-82
2022/09/22 12:16:08;;;;;;;3.90;1.95;;;;;;;26.26;30.50;101996.78;5248602;28;20033;-82
2022/09/22 12:19:02;;;;;;;3.45;1.63;;;;;;;28.16;28.75;101989.16;5264726;28;20384;-82
2022/09/22 12:21:53;;;;;;;3.70;1.90;;;;;;;29.15;27.16;101987.63;5266042;28;20466;-83